createdAt,value
2019-03-24T00:02:03.027Z,7.50
2019-03-24T00:04:43.899Z,7.40
2019-03-24T00:07:24.754Z,7.40
2019-03-24T00:10:05.402Z,7.40
2019-03-24T00:12:46.387Z,7.30
2019-03-24T00:15:27.168Z,7.30
2019-03-24T00:18:08.417Z,7.20
2019-03-24T00:23:57.399Z,7.10
2019-03-24T00:26:38.806Z,7.10
2019-03-24T00:29:19.608Z,7.10
2019-03-24T00:32:02.156Z,7.00
2019-03-24T00:34:41.941Z,7.00
2019-03-24T00:40:38.522Z,6.90
2019-03-24T00:43:27.057Z,6.90
2019-03-24T00:46:15.130Z,6.80
2019-03-24T00:58:21.695Z,6.70
2019-03-24T01:04:18.222Z,6.50
2019-03-24T01:07:06.783Z,6.40
2019-03-24T01:16:00.741Z,6.30
2019-03-24T01:18:49.332Z,6.30
2019-03-24T01:24:25.194Z,6.20
2019-03-24T01:27:06.658Z,6.20
2019-03-24T01:29:48.084Z,6.20
2019-03-24T01:32:29.334Z,6.20
2019-03-24T01:35:10.658Z,6.10
2019-03-24T01:37:51.520Z,6.10
2019-03-24T01:40:32.714Z,6.10
2019-03-24T01:45:58.901Z,6.00
2019-03-24T01:48:39.047Z,6.00
2019-03-24T01:51:19.880Z,6.00
2019-03-24T01:54:01.210Z,6.00
2019-03-24T01:56:42.635Z,6.00
2019-03-24T01:59:23.977Z,6.10
2019-03-24T02:02:05.498Z,6.10
2019-03-24T02:04:46.997Z,6.00
2019-03-24T02:07:28.473Z,6.00
2019-03-24T02:10:09.965Z,5.90
2019-03-24T02:12:50.749Z,5.80
2019-03-24T02:21:46.070Z,5.80
2019-03-24T02:24:27.247Z,5.70
2019-03-24T02:27:27.458Z,5.70
2019-03-24T02:30:09.145Z,5.60
2019-03-24T02:32:50.053Z,5.50
2019-03-24T02:35:31.586Z,5.50
2019-03-24T02:38:12.642Z,5.40
2019-03-24T02:40:53.189Z,5.30
2019-03-24T02:43:34.508Z,5.30
2019-03-24T02:46:24.037Z,5.30
2019-03-24T02:48:58.191Z,5.30
2019-03-24T02:51:39.621Z,5.30
2019-03-24T02:54:21.230Z,5.30
2019-03-24T02:57:01.821Z,5.30
2019-03-24T02:59:43.256Z,5.40
2019-03-24T03:02:24.855Z,5.40
2019-03-24T03:05:05.622Z,5.40
2019-03-24T03:07:46.702Z,5.40
2019-03-24T03:10:27.919Z,5.40
2019-03-24T03:13:08.915Z,5.40
2019-03-24T03:15:50.099Z,5.30
2019-03-24T03:18:32.779Z,5.30
2019-03-24T03:21:13.640Z,5.40
2019-03-24T03:23:53.609Z,5.40
2019-03-24T03:26:42.232Z,5.30
2019-03-24T03:38:26.810Z,5.10
2019-03-24T03:41:15.606Z,5.10
2019-03-24T03:44:04.744Z,5.00
2019-03-24T03:46:53.538Z,5.00
2019-03-24T03:49:43.869Z,5.00
2019-03-24T03:58:34.759Z,4.80
2019-03-24T04:01:23.295Z,4.80
2019-03-24T04:04:11.925Z,4.70
2019-03-24T04:09:54.364Z,4.70
2019-03-24T04:12:43.204Z,4.60
2019-03-24T04:15:31.878Z,4.60
2019-03-24T04:18:20.862Z,4.60
2019-03-24T04:21:09.612Z,4.60
2019-03-24T04:27:10.052Z,4.60
2019-03-24T04:29:50.989Z,4.70
2019-03-24T04:32:31.912Z,4.70
2019-03-24T04:35:13.806Z,4.70
2019-03-24T04:37:55.347Z,4.70
2019-03-24T04:40:36.884Z,4.70
2019-03-24T04:46:36.660Z,4.70
2019-03-24T04:49:17.738Z,4.70
2019-03-24T04:52:00.277Z,4.70
2019-03-24T04:54:41.980Z,4.70
2019-03-24T04:57:23.365Z,4.60
2019-03-24T05:00:04.204Z,4.60
2019-03-24T05:02:45.060Z,4.60
2019-03-24T05:05:26.198Z,4.60
2019-03-24T05:08:07.301Z,4.60
2019-03-24T05:10:48.439Z,4.60
2019-03-24T05:13:29.613Z,4.60
2019-03-24T05:16:10.843Z,4.60
2019-03-24T05:18:52.381Z,4.60
2019-03-24T05:21:33.779Z,4.60
2019-03-24T05:24:14.995Z,4.60
2019-03-24T05:30:04.871Z,4.60
2019-03-24T05:32:45.336Z,4.60
2019-03-24T05:35:26.518Z,4.60
2019-03-24T05:38:06.121Z,4.60
2019-03-24T05:40:54.647Z,4.70
2019-03-24T05:43:43.226Z,4.70
2019-03-24T05:49:25.785Z,5.00
2019-03-24T05:55:22.018Z,5.30
2019-03-24T06:04:12.582Z,5.80
2019-03-24T06:07:01.113Z,6.10
2019-03-24T06:15:38.446Z,6.60
2019-03-24T06:18:08.273Z,6.90
2019-03-24T06:20:50.011Z,7.10
2019-03-24T06:23:32.411Z,7.30
2019-03-24T06:26:13.240Z,7.40
2019-03-24T06:28:54.285Z,7.40
2019-03-24T06:31:35.129Z,7.40
2019-03-24T06:34:15.612Z,7.60
2019-03-24T06:36:57.104Z,7.70
2019-03-24T06:39:38.338Z,7.80
2019-03-24T06:42:19.688Z,7.90
2019-03-24T06:45:00.920Z,8.00
2019-03-24T06:47:42.293Z,8.10
2019-03-24T06:50:23.960Z,8.20
2019-03-24T06:53:04.585Z,8.30
2019-03-24T06:55:45.765Z,8.40
2019-03-24T06:58:27.404Z,8.60
2019-03-24T07:01:07.068Z,8.80
2019-03-24T07:03:48.659Z,8.90
2019-03-24T07:06:30.370Z,9.00
2019-03-24T07:09:11.464Z,9.20
2019-03-24T07:11:52.890Z,9.40
2019-03-24T07:14:33.463Z,9.70
2019-03-24T07:17:14.314Z,9.80
2019-03-24T07:19:55.582Z,9.90
2019-03-24T07:22:36.936Z,9.90
2019-03-24T07:25:07.400Z,10.10
2019-03-24T07:27:56.010Z,10.40
2019-03-24T07:33:31.801Z,10.90
2019-03-24T07:39:31.399Z,11.50
2019-03-24T07:42:12.539Z,11.70
2019-03-24T07:44:53.973Z,11.80
2019-03-24T07:47:34.511Z,12.00
2019-03-24T07:50:15.425Z,12.10
2019-03-24T07:52:56.263Z,12.10
2019-03-24T07:55:37.521Z,12.30
2019-03-24T07:58:18.583Z,12.40
2019-03-24T08:01:00.318Z,12.60
2019-03-24T08:03:41.512Z,12.80
2019-03-24T08:06:22.517Z,12.90
2019-03-24T08:09:04.826Z,13.10
2019-03-24T08:11:45.538Z,13.10
2019-03-24T08:17:32.397Z,13.30
2019-03-24T08:20:12.905Z,13.50
2019-03-24T08:22:54.389Z,13.50
2019-03-24T08:25:35.169Z,13.60
2019-03-24T08:28:16.210Z,13.70
2019-03-24T08:30:57.620Z,13.80
2019-03-24T08:33:39.325Z,14.00
2019-03-24T08:36:19.946Z,14.20
2019-03-24T08:38:59.712Z,14.50
2019-03-24T08:44:42.276Z,14.70
2019-03-24T08:47:31.156Z,14.60
2019-03-24T08:50:19.707Z,14.70
2019-03-24T08:53:08.297Z,14.70
2019-03-24T08:55:56.910Z,15.00
2019-03-24T09:01:40.205Z,15.40
2019-03-24T09:07:28.576Z,15.90
2019-03-24T09:10:10.203Z,16.20
2019-03-24T09:12:51.360Z,16.50
2019-03-24T09:15:31.814Z,16.70
2019-03-24T09:18:13.113Z,16.90
2019-03-24T09:20:54.667Z,17.10
2019-03-24T09:23:35.421Z,17.20
2019-03-24T09:26:16.000Z,17.40
2019-03-24T09:29:16.780Z,17.50
2019-03-24T09:31:58.526Z,17.60
2019-03-24T09:34:40.637Z,18.00
2019-03-24T09:37:22.230Z,18.10
2019-03-24T09:43:08.982Z,18.40
2019-03-24T09:45:50.154Z,18.30
2019-03-24T09:48:30.909Z,18.50
2019-03-24T09:51:12.141Z,18.60
2019-03-24T09:53:53.783Z,18.70
2019-03-24T09:56:35.089Z,18.80
2019-03-24T09:59:16.095Z,18.90
2019-03-24T10:01:57.143Z,19.10
2019-03-24T10:04:37.783Z,19.20
2019-03-24T10:07:18.327Z,19.30
2019-03-24T10:15:55.505Z,19.70
2019-03-24T10:21:52.204Z,19.70
2019-03-24T10:27:48.500Z,20.00
2019-03-24T10:33:45.034Z,20.30
2019-03-24T10:36:33.702Z,20.60
2019-03-24T10:45:24.522Z,21.00
2019-03-24T10:48:13.331Z,21.20
2019-03-24T10:53:56.582Z,21.50
2019-03-24T10:56:45.148Z,21.80
2019-03-24T11:05:22.431Z,22.40
2019-03-24T11:11:47.028Z,22.70
2019-03-24T11:14:28.286Z,22.60
2019-03-24T11:17:10.041Z,22.70
2019-03-24T11:19:51.175Z,22.90
2019-03-24T11:22:33.038Z,23.00
2019-03-24T11:25:14.414Z,23.10
2019-03-24T11:27:55.620Z,23.20
2019-03-24T11:30:36.880Z,23.40
2019-03-24T11:33:18.245Z,23.50
2019-03-24T11:35:59.336Z,23.50
2019-03-24T11:38:40.810Z,23.60
2019-03-24T11:41:22.082Z,23.30
2019-03-24T11:44:03.203Z,23.30
2019-03-24T11:46:44.197Z,23.60
2019-03-24T11:49:25.867Z,23.80
2019-03-24T11:52:06.483Z,23.90
2019-03-24T11:54:47.989Z,23.80
2019-03-24T11:57:29.078Z,23.70
2019-03-24T12:00:10.764Z,23.50
2019-03-24T12:02:51.911Z,23.50
2019-03-24T12:05:33.452Z,23.60
2019-03-24T12:08:15.158Z,23.60
2019-03-24T12:10:56.479Z,23.50
2019-03-24T12:13:37.503Z,23.60
2019-03-24T12:16:18.849Z,23.50
2019-03-24T12:19:00.301Z,23.50
2019-03-24T12:21:40.950Z,23.70
2019-03-24T12:24:21.830Z,23.60
2019-03-24T12:27:02.766Z,23.60
2019-03-24T12:29:43.792Z,23.40
2019-03-24T12:32:25.187Z,23.40
2019-03-24T12:35:06.233Z,23.60
2019-03-24T12:37:47.551Z,23.50
2019-03-24T12:40:28.903Z,23.70
2019-03-24T12:43:18.850Z,23.90
2019-03-24T12:45:52.445Z,24.10
2019-03-24T12:48:33.921Z,24.40
2019-03-24T12:51:14.685Z,24.50
2019-03-24T12:53:56.166Z,24.60
2019-03-24T12:56:37.602Z,24.50
2019-03-24T12:59:18.203Z,24.40
2019-03-24T13:01:58.998Z,24.30
2019-03-24T13:04:39.607Z,24.20
2019-03-24T13:10:29.940Z,23.90
2019-03-24T13:13:10.498Z,23.90
2019-03-24T13:15:52.228Z,23.60
2019-03-24T13:18:34.098Z,23.60
2019-03-24T13:21:14.104Z,23.90
2019-03-24T13:24:02.836Z,24.10
2019-03-24T13:29:59.388Z,24.10
2019-03-24T13:38:37.618Z,23.50
2019-03-24T13:41:18.634Z,23.50
2019-03-24T13:43:59.633Z,23.50
2019-03-24T13:46:40.729Z,23.60
2019-03-24T13:49:21.479Z,23.60
2019-03-24T13:52:02.637Z,23.60
2019-03-24T13:54:44.153Z,23.30
2019-03-24T14:00:32.983Z,23.40
2019-03-24T14:03:14.093Z,23.50
2019-03-24T14:05:55.641Z,23.50
2019-03-24T14:08:25.390Z,23.30
2019-03-24T14:14:08.620Z,23.10
2019-03-24T14:16:57.545Z,23.20
2019-03-24T14:23:13.390Z,23.10
2019-03-24T14:32:01.821Z,23.40
2019-03-24T14:38:18.396Z,23.10
2019-03-24T14:41:07.326Z,23.20
2019-03-24T14:46:49.722Z,23.20
2019-03-24T14:49:31.107Z,23.00
2019-03-24T14:52:12.325Z,22.70
2019-03-24T14:54:54.132Z,22.40
2019-03-24T14:57:35.619Z,22.10
2019-03-24T15:03:36.347Z,22.10
2019-03-24T15:06:17.782Z,22.00
2019-03-24T15:08:58.633Z,22.00
2019-03-24T15:11:38.356Z,21.80
2019-03-24T15:14:27.254Z,21.70
2019-03-24T15:23:04.553Z,21.30
2019-03-24T15:25:53.102Z,21.20
2019-03-24T15:28:41.748Z,21.30
2019-03-24T15:31:30.639Z,21.30
2019-03-24T15:37:14.332Z,21.20
2019-03-24T15:40:01.893Z,21.00
2019-03-24T15:42:50.452Z,21.00
2019-03-24T15:45:39.092Z,20.90
2019-03-24T15:48:27.886Z,21.00
2019-03-24T15:51:17.392Z,21.00
2019-03-24T15:57:00.765Z,20.70
2019-03-24T15:59:50.432Z,20.60
2019-03-24T16:02:39.617Z,20.50
2019-03-24T16:11:30.534Z,20.30
2019-03-24T16:17:14.076Z,20.30
2019-03-24T16:20:02.645Z,20.20
2019-03-24T16:22:51.468Z,20.00
2019-03-24T16:31:41.935Z,19.30
2019-03-24T16:34:30.502Z,19.10
2019-03-24T16:37:11.298Z,18.90
2019-03-24T16:39:51.913Z,18.80
2019-03-24T16:42:33.430Z,18.60
2019-03-24T16:45:14.846Z,18.60
2019-03-24T16:47:56.018Z,18.50
2019-03-24T16:50:37.095Z,18.30
2019-03-24T16:53:18.383Z,18.10
2019-03-24T16:55:59.647Z,18.00
2019-03-24T16:58:39.706Z,17.90
2019-03-24T17:07:30.837Z,17.60
2019-03-24T17:13:08.433Z,17.40
2019-03-24T17:15:57.259Z,17.30
2019-03-24T17:18:46.090Z,17.20
2019-03-24T17:27:22.509Z,16.90
2019-03-24T17:30:11.338Z,16.80
2019-03-24T17:36:08.534Z,16.70
2019-03-24T17:41:10.988Z,16.60
2019-03-24T17:44:02.628Z,16.40
2019-03-24T17:46:35.254Z,16.20
2019-03-24T17:49:16.504Z,16.10
2019-03-24T17:52:01.002Z,15.90
2019-03-24T17:54:39.535Z,15.80
2019-03-24T17:57:20.761Z,15.70
2019-03-24T18:00:01.556Z,15.60
2019-03-24T18:02:42.992Z,15.50
2019-03-24T18:05:23.774Z,15.40
2019-03-24T18:08:05.043Z,15.30
2019-03-24T18:10:46.231Z,15.20
2019-03-24T18:13:27.451Z,15.10
2019-03-24T18:16:08.629Z,15.00
2019-03-24T18:18:48.347Z,15.00
2019-03-24T18:21:36.992Z,14.90
2019-03-24T18:30:27.631Z,14.70
2019-03-24T18:36:10.811Z,14.50
2019-03-24T18:38:59.325Z,14.50
2019-03-24T18:41:48.157Z,14.40
2019-03-24T18:47:44.413Z,14.20
2019-03-24T18:50:33.001Z,14.00
2019-03-24T18:53:21.551Z,13.90
2019-03-24T18:56:10.228Z,13.70
2019-03-24T18:58:58.873Z,13.60
2019-03-24T19:01:40.147Z,13.40
2019-03-24T19:04:21.311Z,13.20
2019-03-24T19:07:02.266Z,13.10
2019-03-24T19:09:41.929Z,13.00
2019-03-24T19:15:24.448Z,13.00
2019-03-24T19:18:13.120Z,13.00
2019-03-24T19:23:56.151Z,13.00
2019-03-24T19:29:39.083Z,12.90
2019-03-24T19:35:27.608Z,13.00
2019-03-24T19:38:09.055Z,13.00
2019-03-24T19:40:49.902Z,13.00
2019-03-24T19:43:30.861Z,12.90
2019-03-24T19:46:11.754Z,12.90
2019-03-24T19:48:53.406Z,12.80
2019-03-24T19:51:34.322Z,12.70
2019-03-24T19:54:15.711Z,12.60
2019-03-24T19:56:57.096Z,12.50
2019-03-24T19:59:38.528Z,12.40
2019-03-24T20:02:19.569Z,12.40
2019-03-24T20:04:49.529Z,12.30
2019-03-24T20:07:47.586Z,12.20
2019-03-24T20:19:09.629Z,11.90
2019-03-24T20:24:52.628Z,11.80
2019-03-24T20:27:41.198Z,11.80
2019-03-24T20:30:29.734Z,11.70
2019-03-24T20:33:18.425Z,11.70
2019-03-24T21:05:11.047Z,11.60
2019-03-24T21:07:59.239Z,11.60
2019-03-24T21:10:47.806Z,11.60
2019-03-24T21:19:37.923Z,11.60
2019-03-24T21:22:26.446Z,11.60
2019-03-24T21:25:14.663Z,11.60
2019-03-24T21:30:57.861Z,11.50
2019-03-24T21:33:46.401Z,11.50
2019-03-24T21:39:42.626Z,11.50
2019-03-24T21:42:31.200Z,11.50
2019-03-24T21:51:13.963Z,11.50
2019-03-24T21:53:55.351Z,11.50
2019-03-24T21:56:36.372Z,11.50
2019-03-24T21:59:17.687Z,11.40
2019-03-24T22:01:58.455Z,11.30
2019-03-24T22:04:39.051Z,11.30
2019-03-24T22:07:20.003Z,11.20
2019-03-24T22:10:00.637Z,11.20
2019-03-24T22:12:41.819Z,11.30
2019-03-24T22:18:31.325Z,11.20
2019-03-24T22:21:12.493Z,11.20
2019-03-24T22:23:53.528Z,11.20
2019-03-24T22:26:34.735Z,11.20
2019-03-24T22:29:15.816Z,11.20
2019-03-24T22:31:55.532Z,11.10
2019-03-24T22:34:44.068Z,11.10
2019-03-24T22:37:32.611Z,11.10
2019-03-24T22:40:21.163Z,11.10
2019-03-24T22:49:11.842Z,11.00
2019-03-24T22:52:07.103Z,10.90
2019-03-24T22:54:50.623Z,10.90
2019-03-24T22:57:39.205Z,10.90
2019-03-24T23:00:46.849Z,10.80
2019-03-24T23:03:35.375Z,10.80
2019-03-24T23:09:10.862Z,10.60
2019-03-24T23:11:52.014Z,10.60
2019-03-24T23:14:32.827Z,10.50
2019-03-24T23:17:13.993Z,10.50
2019-03-24T23:19:55.233Z,10.50
2019-03-24T23:22:36.729Z,10.50
2019-03-24T23:25:17.631Z,10.50
2019-03-24T23:31:07.420Z,10.50
2019-03-24T23:33:48.709Z,10.50
2019-03-24T23:36:29.362Z,10.50
2019-03-24T23:39:10.423Z,10.50
2019-03-24T23:41:51.121Z,10.50
2019-03-24T23:44:32.388Z,10.50
2019-03-24T23:47:14.144Z,10.50
2019-03-24T23:53:02.427Z,10.40
2019-03-24T23:55:43.782Z,10.40
2019-03-24T23:58:24.509Z,10.40
